sensor_id;sensor_type;location;lat;lon;timestamp;P1;durP1;ratioP1;P2;durP2;ratioP2
65871;SDS011;52653;50.080;21.992;2023-04-09T00:02:31;134.10;;;80.10;;
65871;SDS011;52653;50.080;21.992;2023-04-09T00:05:05;129.50;;;77.70;;
65871;SDS011;52653;50.080;21.992;2023-04-09T00:07:49;121.40;;;75.90;;
65871;SDS011;52653;50.080;21.992;2023-04-09T00:10:33;116.40;;;72.70;;
65871;SDS011;52653;50.080;21.992;2023-04-09T00:13:26;115.00;;;71.80;;
65871;SDS011;52653;50.080;21.992;2023-04-09T00:16:21;110.60;;;68.60;;
65871;SDS011;52653;50.080;21.992;2023-04-09T00:19:14;106.20;;;69.60;;
65871;SDS011;52653;50.080;21.992;2023-04-09T00:22:07;118.90;;;74.80;;
65871;SDS011;52653;50.080;21.992;2023-04-09T00:25:00;124.00;;;79.40;;
65871;SDS011;52653;50.080;21.992;2023-04-09T00:27:42;129.10;;;83.90;;
65871;SDS011;52653;50.080;21.992;2023-04-09T00:30:35;133.50;;;84.10;;
65871;SDS011;52653;50.080;21.992;2023-04-09T00:33:18;123.30;;;76.20;;
65871;SDS011;52653;50.080;21.992;2023-04-09T00:36:11;123.00;;;74.90;;
65871;SDS011;52653;50.080;21.992;2023-04-09T00:38:44;114.20;;;65.80;;
65871;SDS011;52653;50.080;21.992;2023-04-09T00:41:17;115.10;;;64.60;;
65871;SDS011;52653;50.080;21.992;2023-04-09T00:43:56;111.70;;;65.40;;
65871;SDS011;52653;50.080;21.992;2023-04-09T00:46:28;108.20;;;57.30;;
65871;SDS011;52653;50.080;21.992;2023-04-09T00:49:02;98.30;;;53.50;;
65871;SDS011;52653;50.080;21.992;2023-04-09T00:51:36;112.70;;;56.50;;
65871;SDS011;52653;50.080;21.992;2023-04-09T00:54:09;96.30;;;55.00;;
65871;SDS011;52653;50.080;21.992;2023-04-09T00:56:42;107.80;;;55.10;;
65871;SDS011;52653;50.080;21.992;2023-04-09T00:59:15;100.00;;;56.70;;
65871;SDS011;52653;50.080;21.992;2023-04-09T01:01:50;99.40;;;55.40;;
65871;SDS011;52653;50.080;21.992;2023-04-09T01:04:25;93.10;;;55.90;;
65871;SDS011;52653;50.080;21.992;2023-04-09T01:07:02;98.70;;;55.70;;
65871;SDS011;52653;50.080;21.992;2023-04-09T01:09:49;85.20;;;50.00;;
65871;SDS011;52653;50.080;21.992;2023-04-09T01:12:27;87.90;;;52.30;;
65871;SDS011;52653;50.080;21.992;2023-04-09T01:15:09;94.80;;;50.70;;
65871;SDS011;52653;50.080;21.992;2023-04-09T01:17:45;82.40;;;50.30;;
65871;SDS011;52653;50.080;21.992;2023-04-09T01:20:28;82.40;;;50.70;;
65871;SDS011;52653;50.080;21.992;2023-04-09T01:23:13;95.90;;;56.00;;
65871;SDS011;52653;50.080;21.992;2023-04-09T01:25:55;100.00;;;57.20;;
65871;SDS011;52653;50.080;21.992;2023-04-09T01:28:45;99.80;;;58.10;;
65871;SDS011;52653;50.080;21.992;2023-04-09T01:31:24;110.50;;;66.60;;
65871;SDS011;52653;50.080;21.992;2023-04-09T01:33:59;117.60;;;70.40;;
65871;SDS011;52653;50.080;21.992;2023-04-09T01:36:36;117.70;;;62.00;;
65871;SDS011;52653;50.080;21.992;2023-04-09T01:39:12;134.00;;;64.20;;
65871;SDS011;52653;50.080;21.992;2023-04-09T01:41:48;116.50;;;65.30;;
65871;SDS011;52653;50.080;21.992;2023-04-09T01:44:25;121.20;;;67.70;;
65871;SDS011;52653;50.080;21.992;2023-04-09T01:47:02;113.40;;;66.10;;
65871;SDS011;52653;50.080;21.992;2023-04-09T01:49:39;106.40;;;64.50;;
65871;SDS011;52653;50.080;21.992;2023-04-09T01:52:13;114.90;;;68.40;;
65871;SDS011;52653;50.080;21.992;2023-04-09T01:54:48;110.20;;;65.90;;
65871;SDS011;52653;50.080;21.992;2023-04-09T01:57:21;107.20;;;65.10;;
65871;SDS011;52653;50.080;21.992;2023-04-09T01:59:56;107.80;;;64.10;;
65871;SDS011;52653;50.080;21.992;2023-04-09T02:02:40;108.80;;;65.60;;
65871;SDS011;52653;50.080;21.992;2023-04-09T02:05:17;107.90;;;66.90;;
65871;SDS011;52653;50.080;21.992;2023-04-09T02:08:03;108.00;;;65.20;;
65871;SDS011;52653;50.080;21.992;2023-04-09T02:10:48;103.50;;;63.30;;
65871;SDS011;52653;50.080;21.992;2023-04-09T02:13:28;101.90;;;61.00;;
65871;SDS011;52653;50.080;21.992;2023-04-09T02:16:03;104.50;;;63.30;;
65871;SDS011;52653;50.080;21.992;2023-04-09T02:18:46;102.50;;;62.10;;
65871;SDS011;52653;50.080;21.992;2023-04-09T02:24:08;102.30;;;62.60;;
65871;SDS011;52653;50.080;21.992;2023-04-09T02:26:43;103.00;;;63.60;;
65871;SDS011;52653;50.080;21.992;2023-04-09T02:29:16;104.00;;;67.60;;
65871;SDS011;52653;50.080;21.992;2023-04-09T02:31:49;102.50;;;64.70;;
65871;SDS011;52653;50.080;21.992;2023-04-09T02:34:22;105.10;;;68.00;;
65871;SDS011;52653;50.080;21.992;2023-04-09T02:36:57;106.10;;;66.40;;
65871;SDS011;52653;50.080;21.992;2023-04-09T02:39:30;102.70;;;62.70;;
65871;SDS011;52653;50.080;21.992;2023-04-09T02:42:03;106.80;;;68.00;;
65871;SDS011;52653;50.080;21.992;2023-04-09T02:44:36;109.20;;;68.00;;
65871;SDS011;52653;50.080;21.992;2023-04-09T02:47:09;102.90;;;65.70;;
65871;SDS011;52653;50.080;21.992;2023-04-09T02:49:45;105.70;;;63.80;;
65871;SDS011;52653;50.080;21.992;2023-04-09T02:52:28;101.60;;;62.50;;
65871;SDS011;52653;50.080;21.992;2023-04-09T02:55:11;100.70;;;62.60;;
65871;SDS011;52653;50.080;21.992;2023-04-09T02:58:04;97.20;;;61.70;;
65871;SDS011;52653;50.080;21.992;2023-04-09T03:00:47;101.30;;;63.10;;
65871;SDS011;52653;50.080;21.992;2023-04-09T03:03:25;93.10;;;59.80;;
65871;SDS011;52653;50.080;21.992;2023-04-09T03:06:02;90.10;;;56.60;;
65871;SDS011;52653;50.080;21.992;2023-04-09T03:08:39;102.80;;;63.70;;
65871;SDS011;52653;50.080;21.992;2023-04-09T03:11:13;94.00;;;61.10;;
65871;SDS011;52653;50.080;21.992;2023-04-09T03:13:48;93.30;;;63.00;;
65871;SDS011;52653;50.080;21.992;2023-04-09T03:16:22;103.90;;;66.30;;
65871;SDS011;52653;50.080;21.992;2023-04-09T03:18:58;104.10;;;66.70;;
65871;SDS011;52653;50.080;21.992;2023-04-09T03:21:31;110.10;;;69.20;;
65871;SDS011;52653;50.080;21.992;2023-04-09T03:24:04;109.30;;;72.60;;
65871;SDS011;52653;50.080;21.992;2023-04-09T03:26:37;117.00;;;72.70;;
65871;SDS011;52653;50.080;21.992;2023-04-09T03:29:11;118.70;;;75.00;;
65871;SDS011;52653;50.080;21.992;2023-04-09T03:31:56;121.30;;;81.90;;
65871;SDS011;52653;50.080;21.992;2023-04-09T03:34:29;118.40;;;78.20;;
65871;SDS011;52653;50.080;21.992;2023-04-09T03:37:09;104.50;;;67.10;;
65871;SDS011;52653;50.080;21.992;2023-04-09T03:39:42;104.70;;;67.60;;
65871;SDS011;52653;50.080;21.992;2023-04-09T03:42:15;96.80;;;62.30;;
65871;SDS011;52653;50.080;21.992;2023-04-09T03:44:53;102.10;;;67.90;;
65871;SDS011;52653;50.080;21.992;2023-04-09T03:47:33;98.70;;;62.80;;
65871;SDS011;52653;50.080;21.992;2023-04-09T03:50:17;105.20;;;65.80;;
65871;SDS011;52653;50.080;21.992;2023-04-09T03:52:54;98.90;;;68.20;;
65871;SDS011;52653;50.080;21.992;2023-04-09T03:55:27;96.20;;;64.60;;
65871;SDS011;52653;50.080;21.992;2023-04-09T03:58:00;104.00;;;66.60;;
65871;SDS011;52653;50.080;21.992;2023-04-09T04:00:36;99.10;;;65.10;;
65871;SDS011;52653;50.080;21.992;2023-04-09T04:03:23;99.40;;;65.40;;
65871;SDS011;52653;50.080;21.992;2023-04-09T04:06:16;105.00;;;65.30;;
65871;SDS011;52653;50.080;21.992;2023-04-09T04:08:56;100.60;;;65.60;;
65871;SDS011;52653;50.080;21.992;2023-04-09T04:11:36;100.80;;;66.30;;
65871;SDS011;52653;50.080;21.992;2023-04-09T04:14:12;92.10;;;60.50;;
65871;SDS011;52653;50.080;21.992;2023-04-09T04:16:49;92.70;;;62.30;;
65871;SDS011;52653;50.080;21.992;2023-04-09T04:19:42;92.70;;;61.80;;
65871;SDS011;52653;50.080;21.992;2023-04-09T04:22:17;96.80;;;63.90;;
65871;SDS011;52653;50.080;21.992;2023-04-09T04:24:56;94.70;;;64.30;;
65871;SDS011;52653;50.080;21.992;2023-04-09T04:27:33;93.10;;;60.70;;
65871;SDS011;52653;50.080;21.992;2023-04-09T04:30:17;87.40;;;59.80;;
65871;SDS011;52653;50.080;21.992;2023-04-09T04:32:57;88.90;;;59.30;;
65871;SDS011;52653;50.080;21.992;2023-04-09T04:35:36;83.00;;;57.50;;
65871;SDS011;52653;50.080;21.992;2023-04-09T04:38:13;83.80;;;57.20;;
65871;SDS011;52653;50.080;21.992;2023-04-09T04:40:57;84.10;;;57.30;;
65871;SDS011;52653;50.080;21.992;2023-04-09T04:43:41;84.40;;;58.20;;
65871;SDS011;52653;50.080;21.992;2023-04-09T04:46:19;88.30;;;59.20;;
65871;SDS011;52653;50.080;21.992;2023-04-09T04:48:55;83.70;;;59.70;;
65871;SDS011;52653;50.080;21.992;2023-04-09T04:51:28;96.40;;;61.70;;
65871;SDS011;52653;50.080;21.992;2023-04-09T04:54:06;90.70;;;60.70;;
65871;SDS011;52653;50.080;21.992;2023-04-09T04:56:42;90.30;;;60.90;;
65871;SDS011;52653;50.080;21.992;2023-04-09T04:59:39;100.60;;;69.00;;
65871;SDS011;52653;50.080;21.992;2023-04-09T05:02:14;95.30;;;66.40;;
65871;SDS011;52653;50.080;21.992;2023-04-09T05:05:08;99.80;;;68.80;;
65871;SDS011;52653;50.080;21.992;2023-04-09T05:07:48;100.70;;;67.90;;
65871;SDS011;52653;50.080;21.992;2023-04-09T05:10:41;96.90;;;63.00;;
65871;SDS011;52653;50.080;21.992;2023-04-09T05:13:25;86.70;;;61.20;;
65871;SDS011;52653;50.080;21.992;2023-04-09T05:15:59;89.90;;;60.90;;
65871;SDS011;52653;50.080;21.992;2023-04-09T05:18:33;88.90;;;58.00;;
65871;SDS011;52653;50.080;21.992;2023-04-09T05:21:07;80.70;;;54.70;;
65871;SDS011;52653;50.080;21.992;2023-04-09T05:23:42;82.80;;;59.30;;
65871;SDS011;52653;50.080;21.992;2023-04-09T05:26:14;80.00;;;56.50;;
65871;SDS011;52653;50.080;21.992;2023-04-09T05:28:54;79.10;;;56.90;;
65871;SDS011;52653;50.080;21.992;2023-04-09T05:31:27;71.30;;;54.60;;
65871;SDS011;52653;50.080;21.992;2023-04-09T05:34:04;74.20;;;52.80;;
65871;SDS011;52653;50.080;21.992;2023-04-09T05:36:46;73.10;;;52.10;;
65871;SDS011;52653;50.080;21.992;2023-04-09T05:39:22;72.50;;;51.40;;
65871;SDS011;52653;50.080;21.992;2023-04-09T05:42:15;65.90;;;49.40;;
65871;SDS011;52653;50.080;21.992;2023-04-09T05:45:13;63.40;;;46.80;;
65871;SDS011;52653;50.080;21.992;2023-04-09T05:47:49;67.60;;;51.80;;
65871;SDS011;52653;50.080;21.992;2023-04-09T05:50:24;164.80;;;127.10;;
65871;SDS011;52653;50.080;21.992;2023-04-09T05:53:05;238.70;;;196.70;;
65871;SDS011;52653;50.080;21.992;2023-04-09T05:55:40;69.90;;;50.40;;
65871;SDS011;52653;50.080;21.992;2023-04-09T05:58:24;66.60;;;46.20;;
65871;SDS011;52653;50.080;21.992;2023-04-09T06:01:06;64.70;;;44.00;;
65871;SDS011;52653;50.080;21.992;2023-04-09T06:03:42;72.90;;;52.20;;
65871;SDS011;52653;50.080;21.992;2023-04-09T06:06:26;68.30;;;51.30;;
65871;SDS011;52653;50.080;21.992;2023-04-09T06:08:59;74.30;;;53.50;;
65871;SDS011;52653;50.080;21.992;2023-04-09T06:11:39;81.10;;;57.30;;
65871;SDS011;52653;50.080;21.992;2023-04-09T06:14:12;86.70;;;64.30;;
65871;SDS011;52653;50.080;21.992;2023-04-09T06:16:46;88.00;;;60.50;;
65871;SDS011;52653;50.080;21.992;2023-04-09T06:19:20;71.80;;;51.90;;
65871;SDS011;52653;50.080;21.992;2023-04-09T06:21:54;73.10;;;51.80;;
65871;SDS011;52653;50.080;21.992;2023-04-09T06:24:26;67.60;;;51.00;;
65871;SDS011;52653;50.080;21.992;2023-04-09T06:27:00;69.30;;;49.70;;
65871;SDS011;52653;50.080;21.992;2023-04-09T06:29:33;67.70;;;45.60;;
65871;SDS011;52653;50.080;21.992;2023-04-09T06:32:07;59.90;;;43.90;;
65871;SDS011;52653;50.080;21.992;2023-04-09T06:34:42;54.90;;;40.10;;
65871;SDS011;52653;50.080;21.992;2023-04-09T06:37:17;54.10;;;41.00;;
65871;SDS011;52653;50.080;21.992;2023-04-09T06:39:53;60.10;;;45.20;;
65871;SDS011;52653;50.080;21.992;2023-04-09T06:42:29;61.40;;;44.40;;
65871;SDS011;52653;50.080;21.992;2023-04-09T06:45:13;53.60;;;40.10;;
65871;SDS011;52653;50.080;21.992;2023-04-09T06:47:45;54.70;;;38.50;;
65871;SDS011;52653;50.080;21.992;2023-04-09T06:50:18;47.30;;;36.40;;
65871;SDS011;52653;50.080;21.992;2023-04-09T06:52:51;45.70;;;34.20;;
65871;SDS011;52653;50.080;21.992;2023-04-09T06:55:29;46.80;;;35.30;;
65871;SDS011;52653;50.080;21.992;2023-04-09T06:58:02;48.10;;;36.20;;
65871;SDS011;52653;50.080;21.992;2023-04-09T07:00:38;48.50;;;35.50;;
65871;SDS011;52653;50.080;21.992;2023-04-09T07:03:11;45.70;;;32.80;;
65871;SDS011;52653;50.080;21.992;2023-04-09T07:05:46;46.90;;;33.40;;
65871;SDS011;52653;50.080;21.992;2023-04-09T07:08:20;47.50;;;33.60;;
65871;SDS011;52653;50.080;21.992;2023-04-09T07:10:53;42.20;;;29.70;;
65871;SDS011;52653;50.080;21.992;2023-04-09T07:13:27;44.80;;;32.40;;
65871;SDS011;52653;50.080;21.992;2023-04-09T07:16:02;42.80;;;30.90;;
65871;SDS011;52653;50.080;21.992;2023-04-09T07:18:38;43.80;;;31.10;;
65871;SDS011;52653;50.080;21.992;2023-04-09T07:21:10;44.70;;;30.80;;
65871;SDS011;52653;50.080;21.992;2023-04-09T07:23:43;43.40;;;30.60;;
65871;SDS011;52653;50.080;21.992;2023-04-09T07:26:16;42.30;;;28.50;;
65871;SDS011;52653;50.080;21.992;2023-04-09T07:28:51;42.70;;;30.60;;
65871;SDS011;52653;50.080;21.992;2023-04-09T07:31:27;40.50;;;28.50;;
65871;SDS011;52653;50.080;21.992;2023-04-09T07:34:04;39.40;;;29.00;;
65871;SDS011;52653;50.080;21.992;2023-04-09T07:36:39;39.20;;;29.50;;
65871;SDS011;52653;50.080;21.992;2023-04-09T07:39:15;39.80;;;28.50;;
65871;SDS011;52653;50.080;21.992;2023-04-09T07:41:49;38.90;;;28.00;;
65871;SDS011;52653;50.080;21.992;2023-04-09T07:44:22;40.30;;;28.80;;
65871;SDS011;52653;50.080;21.992;2023-04-09T07:46:58;38.00;;;28.10;;
65871;SDS011;52653;50.080;21.992;2023-04-09T07:49:35;37.90;;;27.70;;
65871;SDS011;52653;50.080;21.992;2023-04-09T07:52:09;37.20;;;26.70;;
65871;SDS011;52653;50.080;21.992;2023-04-09T07:54:41;38.70;;;27.60;;
65871;SDS011;52653;50.080;21.992;2023-04-09T07:57:16;37.40;;;26.40;;
65871;SDS011;52653;50.080;21.992;2023-04-09T07:59:49;34.40;;;26.10;;
65871;SDS011;52653;50.080;21.992;2023-04-09T08:02:30;35.80;;;26.00;;
65871;SDS011;52653;50.080;21.992;2023-04-09T08:05:07;37.00;;;27.30;;
65871;SDS011;52653;50.080;21.992;2023-04-09T08:07:40;45.70;;;32.60;;
65871;SDS011;52653;50.080;21.992;2023-04-09T08:10:13;35.10;;;25.10;;
65871;SDS011;52653;50.080;21.992;2023-04-09T08:12:46;36.90;;;26.60;;
65871;SDS011;52653;50.080;21.992;2023-04-09T08:15:20;35.40;;;26.80;;
65871;SDS011;52653;50.080;21.992;2023-04-09T08:17:55;37.10;;;29.20;;
65871;SDS011;52653;50.080;21.992;2023-04-09T08:20:39;38.90;;;30.20;;
65871;SDS011;52653;50.080;21.992;2023-04-09T08:23:23;41.20;;;33.10;;
65871;SDS011;52653;50.080;21.992;2023-04-09T08:25:56;34.60;;;28.10;;
65871;SDS011;52653;50.080;21.992;2023-04-09T08:28:39;34.80;;;27.90;;
65871;SDS011;52653;50.080;21.992;2023-04-09T08:31:21;33.50;;;27.40;;
65871;SDS011;52653;50.080;21.992;2023-04-09T08:34:06;31.60;;;26.50;;
65871;SDS011;52653;50.080;21.992;2023-04-09T08:36:41;36.20;;;28.00;;
65871;SDS011;52653;50.080;21.992;2023-04-09T08:39:32;36.00;;;28.80;;
65871;SDS011;52653;50.080;21.992;2023-04-09T08:42:08;34.60;;;27.40;;
65871;SDS011;52653;50.080;21.992;2023-04-09T08:44:47;34.70;;;28.20;;
65871;SDS011;52653;50.080;21.992;2023-04-09T08:47:23;35.40;;;27.20;;
65871;SDS011;52653;50.080;21.992;2023-04-09T08:50:08;33.10;;;27.30;;
65871;SDS011;52653;50.080;21.992;2023-04-09T08:52:45;32.60;;;26.30;;
65871;SDS011;52653;50.080;21.992;2023-04-09T08:55:26;34.40;;;27.30;;
65871;SDS011;52653;50.080;21.992;2023-04-09T08:58:11;36.20;;;29.10;;
65871;SDS011;52653;50.080;21.992;2023-04-09T09:00:47;37.60;;;28.70;;
65871;SDS011;52653;50.080;21.992;2023-04-09T09:03:31;31.60;;;26.10;;
65871;SDS011;52653;50.080;21.992;2023-04-09T09:06:25;36.20;;;29.10;;
65871;SDS011;52653;50.080;21.992;2023-04-09T09:09:12;33.80;;;27.30;;
65871;SDS011;52653;50.080;21.992;2023-04-09T09:12:05;33.10;;;27.50;;
65871;SDS011;52653;50.080;21.992;2023-04-09T09:14:39;33.90;;;26.90;;
65871;SDS011;52653;50.080;21.992;2023-04-09T09:17:15;33.30;;;28.10;;
65871;SDS011;52653;50.080;21.992;2023-04-09T09:19:50;35.00;;;28.40;;
65871;SDS011;52653;50.080;21.992;2023-04-09T09:22:51;30.60;;;26.00;;
65871;SDS011;52653;50.080;21.992;2023-04-09T09:25:46;34.10;;;26.30;;
65871;SDS011;52653;50.080;21.992;2023-04-09T09:28:27;32.40;;;27.40;;
65871;SDS011;52653;50.080;21.992;2023-04-09T09:31:08;33.20;;;27.50;;
65871;SDS011;52653;50.080;21.992;2023-04-09T09:33:53;32.40;;;26.40;;
65871;SDS011;52653;50.080;21.992;2023-04-09T09:36:32;31.10;;;26.60;;
65871;SDS011;52653;50.080;21.992;2023-04-09T09:39:06;28.80;;;24.70;;
65871;SDS011;52653;50.080;21.992;2023-04-09T09:41:40;31.20;;;24.70;;
65871;SDS011;52653;50.080;21.992;2023-04-09T09:47:10;31.00;;;24.50;;
65871;SDS011;52653;50.080;21.992;2023-04-09T09:49:53;28.80;;;23.00;;
65871;SDS011;52653;50.080;21.992;2023-04-09T09:52:37;27.80;;;23.20;;
65871;SDS011;52653;50.080;21.992;2023-04-09T09:55:15;27.10;;;22.00;;
65871;SDS011;52653;50.080;21.992;2023-04-09T09:57:51;30.40;;;24.70;;
65871;SDS011;52653;50.080;21.992;2023-04-09T10:00:46;27.60;;;23.10;;
65871;SDS011;52653;50.080;21.992;2023-04-09T10:03:24;29.90;;;23.50;;
65871;SDS011;52653;50.080;21.992;2023-04-09T10:05:59;29.90;;;24.10;;
65871;SDS011;52653;50.080;21.992;2023-04-09T10:08:37;27.30;;;23.20;;
65871;SDS011;52653;50.080;21.992;2023-04-09T10:11:12;27.70;;;24.50;;
65871;SDS011;52653;50.080;21.992;2023-04-09T10:13:49;29.00;;;24.10;;
65871;SDS011;52653;50.080;21.992;2023-04-09T10:16:28;26.70;;;22.60;;
65871;SDS011;52653;50.080;21.992;2023-04-09T10:19:16;26.50;;;21.30;;
65871;SDS011;52653;50.080;21.992;2023-04-09T10:21:52;26.90;;;21.00;;
65871;SDS011;52653;50.080;21.992;2023-04-09T10:24:37;24.90;;;20.30;;
65871;SDS011;52653;50.080;21.992;2023-04-09T10:29:46;23.70;;;19.90;;
65871;SDS011;52653;50.080;21.992;2023-04-09T10:32:20;21.60;;;18.30;;
65871;SDS011;52653;50.080;21.992;2023-04-09T10:35:02;20.10;;;17.70;;
65871;SDS011;52653;50.080;21.992;2023-04-09T10:37:35;19.80;;;17.50;;
65871;SDS011;52653;50.080;21.992;2023-04-09T10:40:08;21.00;;;18.00;;
65871;SDS011;52653;50.080;21.992;2023-04-09T10:42:51;19.70;;;16.40;;
65871;SDS011;52653;50.080;21.992;2023-04-09T10:45:25;16.00;;;13.90;;
65871;SDS011;52653;50.080;21.992;2023-04-09T10:48:14;15.30;;;13.70;;
65871;SDS011;52653;50.080;21.992;2023-04-09T10:50:51;15.90;;;14.10;;
65871;SDS011;52653;50.080;21.992;2023-04-09T10:53:37;15.50;;;13.90;;
65871;SDS011;52653;50.080;21.992;2023-04-09T10:56:14;17.20;;;15.40;;
65871;SDS011;52653;50.080;21.992;2023-04-09T10:58:47;16.60;;;14.90;;
65871;SDS011;52653;50.080;21.992;2023-04-09T11:01:23;16.70;;;15.00;;
65871;SDS011;52653;50.080;21.992;2023-04-09T11:04:08;13.50;;;12.10;;
65871;SDS011;52653;50.080;21.992;2023-04-09T11:06:52;15.40;;;13.80;;
65871;SDS011;52653;50.080;21.992;2023-04-09T11:09:26;17.30;;;15.30;;
65871;SDS011;52653;50.080;21.992;2023-04-09T11:11:58;15.70;;;13.90;;
65871;SDS011;52653;50.080;21.992;2023-04-09T11:14:35;14.50;;;13.00;;
65871;SDS011;52653;50.080;21.992;2023-04-09T11:17:17;16.20;;;13.90;;
65871;SDS011;52653;50.080;21.992;2023-04-09T11:19:55;16.70;;;15.00;;
65871;SDS011;52653;50.080;21.992;2023-04-09T11:22:51;17.50;;;15.60;;
65871;SDS011;52653;50.080;21.992;2023-04-09T11:25:36;17.00;;;15.20;;
65871;SDS011;52653;50.080;21.992;2023-04-09T11:28:11;14.70;;;13.20;;
65871;SDS011;52653;50.080;21.992;2023-04-09T11:30:48;14.60;;;13.00;;
65871;SDS011;52653;50.080;21.992;2023-04-09T11:33:31;17.00;;;15.20;;
65871;SDS011;52653;50.080;21.992;2023-04-09T11:36:04;17.80;;;15.50;;
65871;SDS011;52653;50.080;21.992;2023-04-09T11:38:41;13.00;;;11.40;;
65871;SDS011;52653;50.080;21.992;2023-04-09T11:41:13;9.70;;;8.70;;
65871;SDS011;52653;50.080;21.992;2023-04-09T11:43:50;10.40;;;9.20;;
65871;SDS011;52653;50.080;21.992;2023-04-09T11:46:23;12.00;;;9.90;;
65871;SDS011;52653;50.080;21.992;2023-04-09T11:48:59;11.70;;;10.30;;
65871;SDS011;52653;50.080;21.992;2023-04-09T11:51:35;16.60;;;14.70;;
65871;SDS011;52653;50.080;21.992;2023-04-09T11:54:08;16.60;;;14.30;;
65871;SDS011;52653;50.080;21.992;2023-04-09T11:56:43;16.10;;;13.80;;
65871;SDS011;52653;50.080;21.992;2023-04-09T11:59:28;18.40;;;14.90;;
65871;SDS011;52653;50.080;21.992;2023-04-09T12:02:13;16.30;;;14.20;;
65871;SDS011;52653;50.080;21.992;2023-04-09T12:05:01;18.10;;;15.40;;
65871;SDS011;52653;50.080;21.992;2023-04-09T12:07:35;18.30;;;14.90;;
65871;SDS011;52653;50.080;21.992;2023-04-09T12:10:17;18.00;;;15.20;;
65871;SDS011;52653;50.080;21.992;2023-04-09T12:12:59;18.30;;;15.60;;
65871;SDS011;52653;50.080;21.992;2023-04-09T12:15:34;18.80;;;15.00;;
65871;SDS011;52653;50.080;21.992;2023-04-09T12:18:12;18.60;;;14.90;;
65871;SDS011;52653;50.080;21.992;2023-04-09T12:20:48;18.90;;;16.20;;
65871;SDS011;52653;50.080;21.992;2023-04-09T12:23:21;20.10;;;16.90;;
65871;SDS011;52653;50.080;21.992;2023-04-09T12:25:54;19.00;;;15.60;;
65871;SDS011;52653;50.080;21.992;2023-04-09T12:28:29;19.40;;;16.60;;
65871;SDS011;52653;50.080;21.992;2023-04-09T12:31:13;17.30;;;15.00;;
65871;SDS011;52653;50.080;21.992;2023-04-09T12:33:48;17.70;;;14.50;;
65871;SDS011;52653;50.080;21.992;2023-04-09T12:36:21;17.90;;;14.90;;
65871;SDS011;52653;50.080;21.992;2023-04-09T12:38:55;17.80;;;15.10;;
65871;SDS011;52653;50.080;21.992;2023-04-09T12:41:28;19.10;;;15.60;;
65871;SDS011;52653;50.080;21.992;2023-04-09T12:44:11;17.80;;;15.60;;
65871;SDS011;52653;50.080;21.992;2023-04-09T12:46:44;20.80;;;16.20;;
65871;SDS011;52653;50.080;21.992;2023-04-09T12:49:26;22.60;;;17.90;;
65871;SDS011;52653;50.080;21.992;2023-04-09T12:52:02;25.40;;;19.80;;
65871;SDS011;52653;50.080;21.992;2023-04-09T12:54:35;19.90;;;15.90;;
65871;SDS011;52653;50.080;21.992;2023-04-09T12:57:08;17.40;;;14.30;;
65871;SDS011;52653;50.080;21.992;2023-04-09T12:59:45;17.50;;;14.80;;
65871;SDS011;52653;50.080;21.992;2023-04-09T13:02:18;15.50;;;13.20;;
65871;SDS011;52653;50.080;21.992;2023-04-09T13:04:51;17.70;;;15.00;;
65871;SDS011;52653;50.080;21.992;2023-04-09T13:07:26;17.40;;;14.60;;
65871;SDS011;52653;50.080;21.992;2023-04-09T13:09:59;14.90;;;12.50;;
65871;SDS011;52653;50.080;21.992;2023-04-09T13:12:44;16.30;;;12.90;;
65871;SDS011;52653;50.080;21.992;2023-04-09T13:15:17;15.30;;;13.40;;
65871;SDS011;52653;50.080;21.992;2023-04-09T13:17:50;15.80;;;13.30;;
65871;SDS011;52653;50.080;21.992;2023-04-09T13:20:23;17.30;;;14.80;;
65871;SDS011;52653;50.080;21.992;2023-04-09T13:22:57;15.50;;;13.70;;
65871;SDS011;52653;50.080;21.992;2023-04-09T13:25:29;16.60;;;13.60;;
65871;SDS011;52653;50.080;21.992;2023-04-09T13:28:02;16.10;;;14.00;;
65871;SDS011;52653;50.080;21.992;2023-04-09T13:30:35;16.70;;;14.40;;
65871;SDS011;52653;50.080;21.992;2023-04-09T13:33:10;16.50;;;13.50;;
65871;SDS011;52653;50.080;21.992;2023-04-09T13:35:44;14.90;;;13.00;;
65871;SDS011;52653;50.080;21.992;2023-04-09T13:38:16;16.40;;;13.50;;
65871;SDS011;52653;50.080;21.992;2023-04-09T13:40:51;15.60;;;13.90;;
65871;SDS011;52653;50.080;21.992;2023-04-09T13:43:24;17.50;;;14.70;;
65871;SDS011;52653;50.080;21.992;2023-04-09T13:46:03;18.30;;;15.40;;
65871;SDS011;52653;50.080;21.992;2023-04-09T13:48:36;18.10;;;15.40;;
65871;SDS011;52653;50.080;21.992;2023-04-09T13:51:09;16.40;;;14.10;;
65871;SDS011;52653;50.080;21.992;2023-04-09T13:53:42;18.50;;;15.70;;
65871;SDS011;52653;50.080;21.992;2023-04-09T13:56:17;26.30;;;22.20;;
65871;SDS011;52653;50.080;21.992;2023-04-09T13:59:10;30.80;;;19.40;;
65871;SDS011;52653;50.080;21.992;2023-04-09T14:01:53;19.70;;;16.50;;
65871;SDS011;52653;50.080;21.992;2023-04-09T14:04:46;18.10;;;15.80;;
65871;SDS011;52653;50.080;21.992;2023-04-09T14:07:28;17.60;;;13.90;;
65871;SDS011;52653;50.080;21.992;2023-04-09T14:10:15;16.10;;;13.70;;
65871;SDS011;52653;50.080;21.992;2023-04-09T14:12:51;16.50;;;13.80;;
65871;SDS011;52653;50.080;21.992;2023-04-09T14:15:23;16.40;;;13.20;;
65871;SDS011;52653;50.080;21.992;2023-04-09T14:17:56;15.10;;;13.30;;
65871;SDS011;52653;50.080;21.992;2023-04-09T14:20:49;15.70;;;13.20;;
65871;SDS011;52653;50.080;21.992;2023-04-09T14:23:22;14.70;;;12.70;;
65871;SDS011;52653;50.080;21.992;2023-04-09T14:25:59;15.90;;;13.40;;
65871;SDS011;52653;50.080;21.992;2023-04-09T14:28:36;15.40;;;12.80;;
65871;SDS011;52653;50.080;21.992;2023-04-09T14:31:21;14.60;;;13.00;;
65871;SDS011;52653;50.080;21.992;2023-04-09T14:33:55;17.20;;;13.00;;
65871;SDS011;52653;50.080;21.992;2023-04-09T14:36:27;15.80;;;13.10;;
65871;SDS011;52653;50.080;21.992;2023-04-09T14:39:02;15.70;;;13.30;;
65871;SDS011;52653;50.080;21.992;2023-04-09T14:41:41;16.20;;;13.10;;
65871;SDS011;52653;50.080;21.992;2023-04-09T14:44:16;15.50;;;13.10;;
65871;SDS011;52653;50.080;21.992;2023-04-09T14:46:49;16.10;;;12.50;;
65871;SDS011;52653;50.080;21.992;2023-04-09T14:49:23;14.80;;;12.20;;
65871;SDS011;52653;50.080;21.992;2023-04-09T14:51:58;15.00;;;12.40;;
65871;SDS011;52653;50.080;21.992;2023-04-09T14:54:31;14.10;;;11.90;;
65871;SDS011;52653;50.080;21.992;2023-04-09T14:57:04;14.80;;;13.00;;
65871;SDS011;52653;50.080;21.992;2023-04-09T14:59:37;15.90;;;13.40;;
65871;SDS011;52653;50.080;21.992;2023-04-09T15:02:12;15.60;;;12.40;;
65871;SDS011;52653;50.080;21.992;2023-04-09T15:04:48;15.10;;;12.50;;
65871;SDS011;52653;50.080;21.992;2023-04-09T15:07:23;11.20;;;8.50;;
65871;SDS011;52653;50.080;21.992;2023-04-09T15:09:56;14.50;;;11.50;;
65871;SDS011;52653;50.080;21.992;2023-04-09T15:12:30;15.40;;;13.10;;
65871;SDS011;52653;50.080;21.992;2023-04-09T15:15:05;14.70;;;13.00;;
65871;SDS011;52653;50.080;21.992;2023-04-09T15:17:42;16.70;;;13.10;;